Startpagina
METAR-TAF:

METAR-TAF

Vliegvelden :

Loja, Ecuador

breedte: 03-59-45S, lengte: 079-22-19W, hoogte: 1236 m

Actueel weer

Dit bericht is 48 minuten geleden gemaakt, om 18:00 UTC
Wind 11 kt uit het oostnoordoosten, variërend tussen het noordnoordoosten en het oosten
Temperatuur 29°C
Vochtigheid 43%
Druk 1016 hPa
Zicht 10 km of meer
Gebroken wolken op 4000 ft

METAR: SECA 191800Z 06011KT 030V100 9999 BKN040 29/15 Q1016

Tijdstip: 13:48 (18:48 UTC)


TAF: ontbreekt

Waarnemingen en weersverwachtingen van meer dan 4000 vliegvelden (METAR en TAF).

De beschikbare stations zijn de gele en rode punten op de kaart.

Ga met uw muis naar het station om de naam te zien.

Klik dan om waarnemingen en weersverwachtingen te zien.

kaart wijzigen: klik op de groene knoppen met een zwart kruis om in te zoomen, op de groene knop met een streepje om uit te zoomen of op de groene pijlen voor aangrenzende kaarten.


METAR-TAF: